sensor_id;sensor_type;location;lat;lon;timestamp;temperature;humidity
23991;DHT22;12205;50.600;4.608;2023-07-09T00:00:50;23.40;99.90
23991;DHT22;12205;50.600;4.608;2023-07-09T00:03:18;23.30;99.90
23991;DHT22;12205;50.600;4.608;2023-07-09T00:05:47;23.30;99.90
23991;DHT22;12205;50.600;4.608;2023-07-09T00:08:24;23.30;99.90
23991;DHT22;12205;50.600;4.608;2023-07-09T00:10:54;23.30;99.90
23991;DHT22;12205;50.600;4.608;2023-07-09T00:13:22;23.20;99.90
23991;DHT22;12205;50.600;4.608;2023-07-09T00:15:50;23.20;99.90
23991;DHT22;12205;50.600;4.608;2023-07-09T00:18:18;23.20;99.90
23991;DHT22;12205;50.600;4.608;2023-07-09T00:20:45;23.10;99.90
23991;DHT22;12205;50.600;4.608;2023-07-09T00:23:13;23.10;99.90
23991;DHT22;12205;50.600;4.608;2023-07-09T00:25:44;23.10;99.90
23991;DHT22;12205;50.600;4.608;2023-07-09T00:28:13;23.00;99.90
23991;DHT22;12205;50.600;4.608;2023-07-09T00:30:41;23.00;99.90
23991;DHT22;12205;50.600;4.608;2023-07-09T00:33:11;23.00;99.90
23991;DHT22;12205;50.600;4.608;2023-07-09T00:35:40;23.00;99.90
23991;DHT22;12205;50.600;4.608;2023-07-09T00:38:13;23.00;99.90
23991;DHT22;12205;50.600;4.608;2023-07-09T00:40:47;22.90;99.90
23991;DHT22;12205;50.600;4.608;2023-07-09T00:43:29;22.90;99.90
23991;DHT22;12205;50.600;4.608;2023-07-09T00:46:16;22.90;99.90
23991;DHT22;12205;50.600;4.608;2023-07-09T00:49:00;22.80;99.90
23991;DHT22;12205;50.600;4.608;2023-07-09T00:51:33;22.80;99.90
23991;DHT22;12205;50.600;4.608;2023-07-09T00:54:13;22.70;99.90
23991;DHT22;12205;50.600;4.608;2023-07-09T00:56:51;22.70;99.90
23991;DHT22;12205;50.600;4.608;2023-07-09T00:59:23;22.70;99.90
23991;DHT22;12205;50.600;4.608;2023-07-09T01:01:55;22.60;99.90
23991;DHT22;12205;50.600;4.608;2023-07-09T01:04:26;22.60;99.90
23991;DHT22;12205;50.600;4.608;2023-07-09T01:06:56;22.50;99.90
23991;DHT22;12205;50.600;4.608;2023-07-09T01:09:24;22.50;99.90
23991;DHT22;12205;50.600;4.608;2023-07-09T01:11:53;22.50;99.90
23991;DHT22;12205;50.600;4.608;2023-07-09T01:14:23;22.50;99.90
23991;DHT22;12205;50.600;4.608;2023-07-09T01:16:55;22.50;99.90
23991;DHT22;12205;50.600;4.608;2023-07-09T01:19:27;22.40;99.90
23991;DHT22;12205;50.600;4.608;2023-07-09T01:22:00;22.40;99.90
23991;DHT22;12205;50.600;4.608;2023-07-09T01:24:52;22.40;99.90
23991;DHT22;12205;50.600;4.608;2023-07-09T01:27:30;22.40;99.90
23991;DHT22;12205;50.600;4.608;2023-07-09T01:30:02;22.40;99.90
23991;DHT22;12205;50.600;4.608;2023-07-09T01:32:32;22.30;99.90
23991;DHT22;12205;50.600;4.608;2023-07-09T01:35:04;22.30;99.90
23991;DHT22;12205;50.600;4.608;2023-07-09T01:37:36;22.30;99.90
23991;DHT22;12205;50.600;4.608;2023-07-09T01:40:05;22.20;99.90
23991;DHT22;12205;50.600;4.608;2023-07-09T01:42:36;22.20;99.90
23991;DHT22;12205;50.600;4.608;2023-07-09T01:45:06;22.20;99.90
23991;DHT22;12205;50.600;4.608;2023-07-09T01:47:36;22.20;99.90
23991;DHT22;12205;50.600;4.608;2023-07-09T01:50:05;22.20;99.90
23991;DHT22;12205;50.600;4.608;2023-07-09T01:52:35;22.20;99.90
23991;DHT22;12205;50.600;4.608;2023-07-09T01:55:04;22.20;99.90
23991;DHT22;12205;50.600;4.608;2023-07-09T01:57:32;22.20;99.90
23991;DHT22;12205;50.600;4.608;2023-07-09T02:00:03;22.10;99.90
23991;DHT22;12205;50.600;4.608;2023-07-09T02:02:39;22.10;99.90
23991;DHT22;12205;50.600;4.608;2023-07-09T02:05:10;22.10;99.90
23991;DHT22;12205;50.600;4.608;2023-07-09T02:07:41;22.10;99.90
23991;DHT22;12205;50.600;4.608;2023-07-09T02:10:10;22.10;99.90
23991;DHT22;12205;50.600;4.608;2023-07-09T02:12:37;22.10;99.90
23991;DHT22;12205;50.600;4.608;2023-07-09T02:15:06;22.10;99.90
23991;DHT22;12205;50.600;4.608;2023-07-09T02:17:34;22.10;99.90
23991;DHT22;12205;50.600;4.608;2023-07-09T02:20:01;22.10;99.90
23991;DHT22;12205;50.600;4.608;2023-07-09T02:22:29;22.10;99.90
23991;DHT22;12205;50.600;4.608;2023-07-09T02:24:59;22.00;99.90
23991;DHT22;12205;50.600;4.608;2023-07-09T02:27:26;22.00;99.90
23991;DHT22;12205;50.600;4.608;2023-07-09T02:29:55;22.00;99.90
23991;DHT22;12205;50.600;4.608;2023-07-09T02:32:25;22.00;99.90
23991;DHT22;12205;50.600;4.608;2023-07-09T02:34:54;22.00;99.90
23991;DHT22;12205;50.600;4.608;2023-07-09T02:37:24;22.00;99.90
23991;DHT22;12205;50.600;4.608;2023-07-09T02:39:53;22.00;99.90
23991;DHT22;12205;50.600;4.608;2023-07-09T02:42:22;22.00;99.90
23991;DHT22;12205;50.600;4.608;2023-07-09T02:44:50;22.00;99.90
23991;DHT22;12205;50.600;4.608;2023-07-09T02:47:18;21.90;99.90
23991;DHT22;12205;50.600;4.608;2023-07-09T02:49:46;21.90;99.90
23991;DHT22;12205;50.600;4.608;2023-07-09T02:52:14;21.90;99.90
23991;DHT22;12205;50.600;4.608;2023-07-09T02:54:41;21.90;99.90
23991;DHT22;12205;50.600;4.608;2023-07-09T02:57:08;21.90;99.90
23991;DHT22;12205;50.600;4.608;2023-07-09T02:59:37;21.90;99.90
23991;DHT22;12205;50.600;4.608;2023-07-09T03:02:04;21.90;99.90
23991;DHT22;12205;50.600;4.608;2023-07-09T03:04:32;21.90;99.90
23991;DHT22;12205;50.600;4.608;2023-07-09T03:06:59;21.90;99.90
23991;DHT22;12205;50.600;4.608;2023-07-09T03:09:26;21.80;99.90
23991;DHT22;12205;50.600;4.608;2023-07-09T03:11:53;21.80;99.90
23991;DHT22;12205;50.600;4.608;2023-07-09T03:14:21;21.80;99.90
23991;DHT22;12205;50.600;4.608;2023-07-09T03:16:50;21.80;99.90
23991;DHT22;12205;50.600;4.608;2023-07-09T03:19:17;21.80;99.90
23991;DHT22;12205;50.600;4.608;2023-07-09T03:21:44;21.80;99.90
23991;DHT22;12205;50.600;4.608;2023-07-09T03:24:11;21.70;99.90
23991;DHT22;12205;50.600;4.608;2023-07-09T03:26:40;21.70;99.90
23991;DHT22;12205;50.600;4.608;2023-07-09T03:29:07;21.70;99.90
23991;DHT22;12205;50.600;4.608;2023-07-09T03:31:35;21.70;99.90
23991;DHT22;12205;50.600;4.608;2023-07-09T03:34:03;21.70;99.90
23991;DHT22;12205;50.600;4.608;2023-07-09T03:36:31;21.70;99.90
23991;DHT22;12205;50.600;4.608;2023-07-09T03:38:58;21.70;99.90
23991;DHT22;12205;50.600;4.608;2023-07-09T03:41:25;21.70;99.90
23991;DHT22;12205;50.600;4.608;2023-07-09T03:43:52;21.70;99.90
23991;DHT22;12205;50.600;4.608;2023-07-09T03:46:19;21.60;99.90
23991;DHT22;12205;50.600;4.608;2023-07-09T03:48:46;21.60;99.90
23991;DHT22;12205;50.600;4.608;2023-07-09T03:51:17;21.60;99.90
23991;DHT22;12205;50.600;4.608;2023-07-09T03:53:44;21.60;99.90
23991;DHT22;12205;50.600;4.608;2023-07-09T03:56:11;21.60;99.90
23991;DHT22;12205;50.600;4.608;2023-07-09T03:58:38;21.60;99.90
23991;DHT22;12205;50.600;4.608;2023-07-09T04:01:06;21.50;99.90
23991;DHT22;12205;50.600;4.608;2023-07-09T04:03:33;21.60;99.90
23991;DHT22;12205;50.600;4.608;2023-07-09T04:06:00;21.60;99.90
23991;DHT22;12205;50.600;4.608;2023-07-09T04:08:28;21.60;99.90
23991;DHT22;12205;50.600;4.608;2023-07-09T04:10:59;21.50;99.90
23991;DHT22;12205;50.600;4.608;2023-07-09T04:13:28;21.50;99.90
23991;DHT22;12205;50.600;4.608;2023-07-09T04:15:55;21.50;99.90
23991;DHT22;12205;50.600;4.608;2023-07-09T04:18:22;21.50;99.90
23991;DHT22;12205;50.600;4.608;2023-07-09T04:20:50;21.50;99.90
23991;DHT22;12205;50.600;4.608;2023-07-09T04:23:19;21.50;99.90
23991;DHT22;12205;50.600;4.608;2023-07-09T04:25:47;21.50;99.90
23991;DHT22;12205;50.600;4.608;2023-07-09T04:28:15;21.50;99.90
23991;DHT22;12205;50.600;4.608;2023-07-09T04:30:47;21.50;99.90
23991;DHT22;12205;50.600;4.608;2023-07-09T04:33:15;21.60;99.90
23991;DHT22;12205;50.600;4.608;2023-07-09T04:35:44;21.50;99.90
23991;DHT22;12205;50.600;4.608;2023-07-09T04:38:12;21.50;99.90
23991;DHT22;12205;50.600;4.608;2023-07-09T04:40:39;21.50;99.90
23991;DHT22;12205;50.600;4.608;2023-07-09T04:43:08;21.50;99.90
23991;DHT22;12205;50.600;4.608;2023-07-09T04:45:35;21.60;99.90
23991;DHT22;12205;50.600;4.608;2023-07-09T04:48:03;21.60;99.90
23991;DHT22;12205;50.600;4.608;2023-07-09T04:50:30;21.60;99.90
23991;DHT22;12205;50.600;4.608;2023-07-09T04:52:58;21.70;99.90
23991;DHT22;12205;50.600;4.608;2023-07-09T04:55:26;21.70;99.90
23991;DHT22;12205;50.600;4.608;2023-07-09T04:57:53;21.70;99.90
23991;DHT22;12205;50.600;4.608;2023-07-09T05:00:22;21.80;99.90
23991;DHT22;12205;50.600;4.608;2023-07-09T05:02:50;21.80;99.90
23991;DHT22;12205;50.600;4.608;2023-07-09T05:05:17;21.80;99.90
23991;DHT22;12205;50.600;4.608;2023-07-09T05:07:44;21.80;99.90
23991;DHT22;12205;50.600;4.608;2023-07-09T05:10:12;21.80;99.90
23991;DHT22;12205;50.600;4.608;2023-07-09T05:12:48;21.80;99.90
23991;DHT22;12205;50.600;4.608;2023-07-09T05:15:16;21.90;99.90
23991;DHT22;12205;50.600;4.608;2023-07-09T05:17:45;22.00;99.90
23991;DHT22;12205;50.600;4.608;2023-07-09T05:20:13;22.00;99.90
23991;DHT22;12205;50.600;4.608;2023-07-09T05:22:40;22.10;99.90
23991;DHT22;12205;50.600;4.608;2023-07-09T05:25:08;22.20;99.90
23991;DHT22;12205;50.600;4.608;2023-07-09T05:27:35;22.30;99.90
23991;DHT22;12205;50.600;4.608;2023-07-09T05:30:03;22.40;99.90
23991;DHT22;12205;50.600;4.608;2023-07-09T05:32:31;22.40;99.90
23991;DHT22;12205;50.600;4.608;2023-07-09T05:35:00;22.50;99.90
23991;DHT22;12205;50.600;4.608;2023-07-09T05:37:27;22.60;99.90
23991;DHT22;12205;50.600;4.608;2023-07-09T05:39:54;22.70;99.90
23991;DHT22;12205;50.600;4.608;2023-07-09T05:42:21;22.80;99.90
23991;DHT22;12205;50.600;4.608;2023-07-09T05:44:48;22.80;99.90
23991;DHT22;12205;50.600;4.608;2023-07-09T05:47:15;22.90;99.90
23991;DHT22;12205;50.600;4.608;2023-07-09T05:49:43;23.00;99.90
23991;DHT22;12205;50.600;4.608;2023-07-09T05:52:12;23.10;99.90
23991;DHT22;12205;50.600;4.608;2023-07-09T05:54:39;23.20;99.90
23991;DHT22;12205;50.600;4.608;2023-07-09T05:57:06;23.30;99.90
23991;DHT22;12205;50.600;4.608;2023-07-09T05:59:34;23.40;99.90
23991;DHT22;12205;50.600;4.608;2023-07-09T06:02:01;23.50;99.90
23991;DHT22;12205;50.600;4.608;2023-07-09T06:04:28;23.50;99.90
23991;DHT22;12205;50.600;4.608;2023-07-09T06:06:56;23.60;99.90
23991;DHT22;12205;50.600;4.608;2023-07-09T06:09:24;23.70;99.90
23991;DHT22;12205;50.600;4.608;2023-07-09T06:11:51;23.70;99.90
23991;DHT22;12205;50.600;4.608;2023-07-09T06:14:18;23.80;99.90
23991;DHT22;12205;50.600;4.608;2023-07-09T06:16:46;23.80;99.90
23991;DHT22;12205;50.600;4.608;2023-07-09T06:19:13;23.90;99.90
23991;DHT22;12205;50.600;4.608;2023-07-09T06:21:40;23.90;99.90
23991;DHT22;12205;50.600;4.608;2023-07-09T06:24:08;23.90;99.90
23991;DHT22;12205;50.600;4.608;2023-07-09T06:26:37;24.10;99.90
23991;DHT22;12205;50.600;4.608;2023-07-09T06:29:04;24.10;99.90
23991;DHT22;12205;50.600;4.608;2023-07-09T06:31:32;24.20;99.90
23991;DHT22;12205;50.600;4.608;2023-07-09T06:33:59;24.30;99.90
23991;DHT22;12205;50.600;4.608;2023-07-09T06:36:26;24.40;99.90
23991;DHT22;12205;50.600;4.608;2023-07-09T06:38:53;24.50;99.90
23991;DHT22;12205;50.600;4.608;2023-07-09T06:41:20;24.60;99.90
23991;DHT22;12205;50.600;4.608;2023-07-09T06:43:49;24.60;99.90
23991;DHT22;12205;50.600;4.608;2023-07-09T06:46:19;24.70;99.90
23991;DHT22;12205;50.600;4.608;2023-07-09T06:48:46;24.80;99.90
23991;DHT22;12205;50.600;4.608;2023-07-09T06:51:13;24.90;99.90
23991;DHT22;12205;50.600;4.608;2023-07-09T06:53:40;24.90;99.90
23991;DHT22;12205;50.600;4.608;2023-07-09T06:56:08;25.00;99.90
23991;DHT22;12205;50.600;4.608;2023-07-09T06:58:36;25.10;99.90
23991;DHT22;12205;50.600;4.608;2023-07-09T07:01:05;25.20;99.90
23991;DHT22;12205;50.600;4.608;2023-07-09T07:03:33;25.30;99.90
23991;DHT22;12205;50.600;4.608;2023-07-09T07:06:00;25.30;99.90
23991;DHT22;12205;50.600;4.608;2023-07-09T07:08:28;25.40;99.90
23991;DHT22;12205;50.600;4.608;2023-07-09T07:10:57;25.50;99.90
23991;DHT22;12205;50.600;4.608;2023-07-09T07:13:28;25.50;99.90
23991;DHT22;12205;50.600;4.608;2023-07-09T07:15:55;25.60;99.90
23991;DHT22;12205;50.600;4.608;2023-07-09T07:18:24;25.60;99.90
23991;DHT22;12205;50.600;4.608;2023-07-09T07:20:51;25.70;99.90
23991;DHT22;12205;50.600;4.608;2023-07-09T07:23:19;25.80;99.90
23991;DHT22;12205;50.600;4.608;2023-07-09T07:25:46;25.80;99.90
23991;DHT22;12205;50.600;4.608;2023-07-09T07:28:14;25.90;99.90
23991;DHT22;12205;50.600;4.608;2023-07-09T07:30:41;25.90;99.90
23991;DHT22;12205;50.600;4.608;2023-07-09T07:33:09;26.00;99.90
23991;DHT22;12205;50.600;4.608;2023-07-09T07:35:38;26.00;99.90
23991;DHT22;12205;50.600;4.608;2023-07-09T07:38:05;26.10;99.90
23991;DHT22;12205;50.600;4.608;2023-07-09T07:40:32;26.10;99.90
23991;DHT22;12205;50.600;4.608;2023-07-09T07:42:59;26.10;99.90
23991;DHT22;12205;50.600;4.608;2023-07-09T07:45:26;26.10;99.90
23991;DHT22;12205;50.600;4.608;2023-07-09T07:47:54;26.20;99.90
23991;DHT22;12205;50.600;4.608;2023-07-09T07:50:21;26.20;99.90
23991;DHT22;12205;50.600;4.608;2023-07-09T07:52:49;26.30;99.90
23991;DHT22;12205;50.600;4.608;2023-07-09T07:55:16;26.40;99.90
23991;DHT22;12205;50.600;4.608;2023-07-09T07:57:45;26.50;99.90
23991;DHT22;12205;50.600;4.608;2023-07-09T08:00:13;26.50;99.90
23991;DHT22;12205;50.600;4.608;2023-07-09T08:02:41;26.50;99.90
23991;DHT22;12205;50.600;4.608;2023-07-09T08:05:08;26.60;99.90
23991;DHT22;12205;50.600;4.608;2023-07-09T08:07:35;26.70;99.90
23991;DHT22;12205;50.600;4.608;2023-07-09T08:10:05;26.80;99.90
23991;DHT22;12205;50.600;4.608;2023-07-09T08:12:33;27.00;99.90
23991;DHT22;12205;50.600;4.608;2023-07-09T08:15:00;27.00;99.90
23991;DHT22;12205;50.600;4.608;2023-07-09T08:17:27;27.00;99.90
23991;DHT22;12205;50.600;4.608;2023-07-09T08:19:54;27.10;99.90
23991;DHT22;12205;50.600;4.608;2023-07-09T08:22:22;27.20;99.90
23991;DHT22;12205;50.600;4.608;2023-07-09T08:24:49;27.30;99.90
23991;DHT22;12205;50.600;4.608;2023-07-09T08:27:19;27.20;99.90
23991;DHT22;12205;50.600;4.608;2023-07-09T08:29:46;27.20;99.90
23991;DHT22;12205;50.600;4.608;2023-07-09T08:32:14;27.30;99.90
23991;DHT22;12205;50.600;4.608;2023-07-09T08:34:42;27.40;99.90
23991;DHT22;12205;50.600;4.608;2023-07-09T08:37:09;27.40;99.90
23991;DHT22;12205;50.600;4.608;2023-07-09T08:39:36;27.50;99.90
23991;DHT22;12205;50.600;4.608;2023-07-09T08:42:05;27.50;99.90
23991;DHT22;12205;50.600;4.608;2023-07-09T08:44:48;27.50;99.90
23991;DHT22;12205;50.600;4.608;2023-07-09T08:47:33;27.60;99.90
23991;DHT22;12205;50.600;4.608;2023-07-09T08:50:10;27.70;99.90
23991;DHT22;12205;50.600;4.608;2023-07-09T08:52:42;27.80;99.90
23991;DHT22;12205;50.600;4.608;2023-07-09T08:55:14;27.90;99.90
23991;DHT22;12205;50.600;4.608;2023-07-09T08:57:44;27.90;99.90
23991;DHT22;12205;50.600;4.608;2023-07-09T09:00:17;28.00;99.90
23991;DHT22;12205;50.600;4.608;2023-07-09T09:02:51;28.00;99.90
23991;DHT22;12205;50.600;4.608;2023-07-09T09:05:24;28.10;99.90
23991;DHT22;12205;50.600;4.608;2023-07-09T09:07:56;28.20;99.90
23991;DHT22;12205;50.600;4.608;2023-07-09T09:10:33;28.30;99.90
23991;DHT22;12205;50.600;4.608;2023-07-09T09:13:13;28.40;99.90
23991;DHT22;12205;50.600;4.608;2023-07-09T09:15:45;28.50;99.90
23991;DHT22;12205;50.600;4.608;2023-07-09T09:18:19;28.60;99.90
23991;DHT22;12205;50.600;4.608;2023-07-09T09:20:54;28.70;99.90
23991;DHT22;12205;50.600;4.608;2023-07-09T09:23:38;28.70;99.90
23991;DHT22;12205;50.600;4.608;2023-07-09T09:26:22;28.70;99.90
23991;DHT22;12205;50.600;4.608;2023-07-09T09:28:53;28.70;99.90
23991;DHT22;12205;50.600;4.608;2023-07-09T09:31:22;28.70;99.90
23991;DHT22;12205;50.600;4.608;2023-07-09T09:33:51;28.80;99.90
23991;DHT22;12205;50.600;4.608;2023-07-09T09:36:21;28.80;99.90
23991;DHT22;12205;50.600;4.608;2023-07-09T09:38:49;28.90;99.90
23991;DHT22;12205;50.600;4.608;2023-07-09T09:41:18;28.90;99.90
23991;DHT22;12205;50.600;4.608;2023-07-09T09:43:48;29.00;99.90
23991;DHT22;12205;50.600;4.608;2023-07-09T09:46:21;29.10;99.90
23991;DHT22;12205;50.600;4.608;2023-07-09T09:48:49;29.20;99.90
23991;DHT22;12205;50.600;4.608;2023-07-09T09:51:19;29.30;99.90
23991;DHT22;12205;50.600;4.608;2023-07-09T09:53:49;29.30;99.90
23991;DHT22;12205;50.600;4.608;2023-07-09T09:56:19;29.50;99.90
23991;DHT22;12205;50.600;4.608;2023-07-09T09:58:52;29.60;99.90
23991;DHT22;12205;50.600;4.608;2023-07-09T10:01:26;29.70;99.90
23991;DHT22;12205;50.600;4.608;2023-07-09T10:03:56;29.90;99.90
23991;DHT22;12205;50.600;4.608;2023-07-09T10:06:33;29.90;99.90
23991;DHT22;12205;50.600;4.608;2023-07-09T10:09:10;30.10;99.90
23991;DHT22;12205;50.600;4.608;2023-07-09T10:11:48;30.10;99.90
23991;DHT22;12205;50.600;4.608;2023-07-09T10:14:29;30.20;99.90
23991;DHT22;12205;50.600;4.608;2023-07-09T10:17:10;30.40;99.90
23991;DHT22;12205;50.600;4.608;2023-07-09T10:19:49;30.40;99.90
23991;DHT22;12205;50.600;4.608;2023-07-09T10:22:34;30.60;99.90
23991;DHT22;12205;50.600;4.608;2023-07-09T10:25:17;30.50;99.90
23991;DHT22;12205;50.600;4.608;2023-07-09T10:31:15;30.20;99.90
23991;DHT22;12205;50.600;4.608;2023-07-09T10:33:56;30.00;99.90
23991;DHT22;12205;50.600;4.608;2023-07-09T10:36:44;30.20;99.90
23991;DHT22;12205;50.600;4.608;2023-07-09T10:39:25;30.40;99.90
23991;DHT22;12205;50.600;4.608;2023-07-09T10:41:59;30.50;99.90
23991;DHT22;12205;50.600;4.608;2023-07-09T10:44:30;30.60;99.90
23991;DHT22;12205;50.600;4.608;2023-07-09T10:47:03;30.30;99.90
23991;DHT22;12205;50.600;4.608;2023-07-09T10:49:38;30.40;99.90
23991;DHT22;12205;50.600;4.608;2023-07-09T10:52:15;30.20;99.90
23991;DHT22;12205;50.600;4.608;2023-07-09T10:54:55;30.20;99.90
23991;DHT22;12205;50.600;4.608;2023-07-09T10:57:30;29.90;99.90
23991;DHT22;12205;50.600;4.608;2023-07-09T11:00:07;29.50;99.90
23991;DHT22;12205;50.600;4.608;2023-07-09T11:02:42;29.30;99.90
23991;DHT22;12205;50.600;4.608;2023-07-09T11:05:12;29.00;99.90
23991;DHT22;12205;50.600;4.608;2023-07-09T11:07:44;28.70;99.90
23991;DHT22;12205;50.600;4.608;2023-07-09T11:10:21;28.60;99.90
23991;DHT22;12205;50.600;4.608;2023-07-09T11:12:56;28.50;99.90
23991;DHT22;12205;50.600;4.608;2023-07-09T11:15:31;28.40;99.90
23991;DHT22;12205;50.600;4.608;2023-07-09T11:18:05;28.30;99.90
23991;DHT22;12205;50.600;4.608;2023-07-09T11:20:36;28.30;99.90
23991;DHT22;12205;50.600;4.608;2023-07-09T11:23:18;28.10;99.90
23991;DHT22;12205;50.600;4.608;2023-07-09T11:25:48;28.10;99.90
23991;DHT22;12205;50.600;4.608;2023-07-09T11:28:33;28.10;99.90
23991;DHT22;12205;50.600;4.608;2023-07-09T11:31:06;27.90;99.90
23991;DHT22;12205;50.600;4.608;2023-07-09T11:33:45;27.80;99.90
23991;DHT22;12205;50.600;4.608;2023-07-09T11:36:25;27.80;99.90
23991;DHT22;12205;50.600;4.608;2023-07-09T11:38:53;27.70;99.90
23991;DHT22;12205;50.600;4.608;2023-07-09T11:41:39;27.60;99.90
23991;DHT22;12205;50.600;4.608;2023-07-09T11:44:15;27.50;99.90
23991;DHT22;12205;50.600;4.608;2023-07-09T11:46:55;27.50;99.90
23991;DHT22;12205;50.600;4.608;2023-07-09T11:49:39;27.20;99.90
23991;DHT22;12205;50.600;4.608;2023-07-09T11:52:22;26.90;99.90
23991;DHT22;12205;50.600;4.608;2023-07-09T11:54:53;26.80;99.90
23991;DHT22;12205;50.600;4.608;2023-07-09T11:57:21;26.70;99.90
23991;DHT22;12205;50.600;4.608;2023-07-09T11:59:48;26.60;99.90
23991;DHT22;12205;50.600;4.608;2023-07-09T12:02:18;26.50;99.90
23991;DHT22;12205;50.600;4.608;2023-07-09T12:04:51;26.20;99.90
23991;DHT22;12205;50.600;4.608;2023-07-09T12:07:21;26.00;99.90
23991;DHT22;12205;50.600;4.608;2023-07-09T12:09:51;25.70;99.90
23991;DHT22;12205;50.600;4.608;2023-07-09T12:12:20;25.40;99.90
23991;DHT22;12205;50.600;4.608;2023-07-09T12:14:49;25.20;99.90
23991;DHT22;12205;50.600;4.608;2023-07-09T12:17:18;24.90;99.90
23991;DHT22;12205;50.600;4.608;2023-07-09T12:19:45;24.70;99.90
23991;DHT22;12205;50.600;4.608;2023-07-09T12:22:17;24.40;99.90
23991;DHT22;12205;50.600;4.608;2023-07-09T12:24:49;23.90;99.90
23991;DHT22;12205;50.600;4.608;2023-07-09T12:27:23;23.50;99.90
23991;DHT22;12205;50.600;4.608;2023-07-09T12:29:53;23.10;99.90
23991;DHT22;12205;50.600;4.608;2023-07-09T12:32:22;22.80;99.90
23991;DHT22;12205;50.600;4.608;2023-07-09T12:34:53;22.40;99.90
23991;DHT22;12205;50.600;4.608;2023-07-09T12:37:31;22.20;99.90
23991;DHT22;12205;50.600;4.608;2023-07-09T12:40:00;22.20;99.90
23991;DHT22;12205;50.600;4.608;2023-07-09T12:42:30;22.10;99.90
23991;DHT22;12205;50.600;4.608;2023-07-09T12:44:59;22.10;99.90
23991;DHT22;12205;50.600;4.608;2023-07-09T12:47:27;22.10;99.90
23991;DHT22;12205;50.600;4.608;2023-07-09T12:50:01;22.10;99.90
23991;DHT22;12205;50.600;4.608;2023-07-09T12:52:45;22.10;99.90
23991;DHT22;12205;50.600;4.608;2023-07-09T12:55:20;22.10;99.90
23991;DHT22;12205;50.600;4.608;2023-07-09T12:57:48;22.20;99.90
23991;DHT22;12205;50.600;4.608;2023-07-09T13:00:17;22.30;99.90
23991;DHT22;12205;50.600;4.608;2023-07-09T13:02:45;22.40;99.90
23991;DHT22;12205;50.600;4.608;2023-07-09T13:05:21;22.50;99.90
23991;DHT22;12205;50.600;4.608;2023-07-09T13:07:53;22.60;99.90
23991;DHT22;12205;50.600;4.608;2023-07-09T13:10:27;22.60;99.90
23991;DHT22;12205;50.600;4.608;2023-07-09T13:13:00;22.70;99.90
23991;DHT22;12205;50.600;4.608;2023-07-09T13:15:30;22.70;99.90
23991;DHT22;12205;50.600;4.608;2023-07-09T13:18:06;23.00;99.90
23991;DHT22;12205;50.600;4.608;2023-07-09T13:20:38;23.10;99.90
23991;DHT22;12205;50.600;4.608;2023-07-09T13:23:11;23.40;99.90
23991;DHT22;12205;50.600;4.608;2023-07-09T13:25:41;23.50;99.90
23991;DHT22;12205;50.600;4.608;2023-07-09T13:28:15;23.70;99.90
23991;DHT22;12205;50.600;4.608;2023-07-09T13:30:43;24.00;99.90
23991;DHT22;12205;50.600;4.608;2023-07-09T13:33:11;24.20;99.90
23991;DHT22;12205;50.600;4.608;2023-07-09T13:35:38;24.40;99.90
23991;DHT22;12205;50.600;4.608;2023-07-09T13:38:13;24.60;99.90
23991;DHT22;12205;50.600;4.608;2023-07-09T13:40:42;24.80;99.90
23991;DHT22;12205;50.600;4.608;2023-07-09T13:43:12;25.10;99.90
23991;DHT22;12205;50.600;4.608;2023-07-09T13:45:40;25.40;99.90
23991;DHT22;12205;50.600;4.608;2023-07-09T13:48:13;25.40;99.90
23991;DHT22;12205;50.600;4.608;2023-07-09T13:50:43;25.60;99.90
23991;DHT22;12205;50.600;4.608;2023-07-09T13:53:17;25.70;99.90
23991;DHT22;12205;50.600;4.608;2023-07-09T13:55:48;25.80;99.90
23991;DHT22;12205;50.600;4.608;2023-07-09T13:58:18;25.90;99.90
23991;DHT22;12205;50.600;4.608;2023-07-09T14:00:49;26.20;99.90
23991;DHT22;12205;50.600;4.608;2023-07-09T14:03:23;26.40;99.90
23991;DHT22;12205;50.600;4.608;2023-07-09T14:05:52;26.70;99.90
23991;DHT22;12205;50.600;4.608;2023-07-09T14:08:21;27.00;99.90
23991;DHT22;12205;50.600;4.608;2023-07-09T14:10:49;27.20;99.90
23991;DHT22;12205;50.600;4.608;2023-07-09T14:13:18;27.50;99.90
23991;DHT22;12205;50.600;4.608;2023-07-09T14:15:48;27.80;99.90
23991;DHT22;12205;50.600;4.608;2023-07-09T14:18:17;28.20;99.90
23991;DHT22;12205;50.600;4.608;2023-07-09T14:20:46;28.50;99.90
23991;DHT22;12205;50.600;4.608;2023-07-09T14:23:15;28.90;99.90
23991;DHT22;12205;50.600;4.608;2023-07-09T14:25:45;29.50;99.90
23991;DHT22;12205;50.600;4.608;2023-07-09T14:28:14;30.10;99.90
23991;DHT22;12205;50.600;4.608;2023-07-09T14:30:42;30.60;99.90
23991;DHT22;12205;50.600;4.608;2023-07-09T14:33:13;31.00;99.90
23991;DHT22;12205;50.600;4.608;2023-07-09T14:35:42;31.50;99.90
23991;DHT22;12205;50.600;4.608;2023-07-09T14:38:15;32.00;99.90
23991;DHT22;12205;50.600;4.608;2023-07-09T14:40:47;32.40;99.90
23991;DHT22;12205;50.600;4.608;2023-07-09T14:43:15;32.90;99.90
23991;DHT22;12205;50.600;4.608;2023-07-09T14:45:43;33.40;99.90
23991;DHT22;12205;50.600;4.608;2023-07-09T14:48:11;33.90;99.90
23991;DHT22;12205;50.600;4.608;2023-07-09T14:50:41;34.20;99.90
23991;DHT22;12205;50.600;4.608;2023-07-09T14:53:13;34.50;99.90
23991;DHT22;12205;50.600;4.608;2023-07-09T14:55:42;34.90;99.90
23991;DHT22;12205;50.600;4.608;2023-07-09T14:58:16;35.20;99.90
23991;DHT22;12205;50.600;4.608;2023-07-09T15:00:46;35.50;99.90
23991;DHT22;12205;50.600;4.608;2023-07-09T15:03:19;35.80;99.90
23991;DHT22;12205;50.600;4.608;2023-07-09T15:05:48;36.10;99.90
23991;DHT22;12205;50.600;4.608;2023-07-09T15:08:17;36.10;99.90
23991;DHT22;12205;50.600;4.608;2023-07-09T15:10:46;36.00;99.90
23991;DHT22;12205;50.600;4.608;2023-07-09T15:13:29;36.20;99.90
23991;DHT22;12205;50.600;4.608;2023-07-09T15:15:57;36.30;99.90
23991;DHT22;12205;50.600;4.608;2023-07-09T15:18:24;36.40;99.90
23991;DHT22;12205;50.600;4.608;2023-07-09T15:20:54;36.20;99.90
23991;DHT22;12205;50.600;4.608;2023-07-09T15:23:23;36.40;99.90
23991;DHT22;12205;50.600;4.608;2023-07-09T15:25:52;36.70;99.90
23991;DHT22;12205;50.600;4.608;2023-07-09T15:28:21;36.90;99.90
23991;DHT22;12205;50.600;4.608;2023-07-09T15:30:48;37.00;99.90
23991;DHT22;12205;50.600;4.608;2023-07-09T15:33:16;37.00;99.90
23991;DHT22;12205;50.600;4.608;2023-07-09T15:35:46;36.90;99.90
23991;DHT22;12205;50.600;4.608;2023-07-09T15:38:31;37.00;99.90
23991;DHT22;12205;50.600;4.608;2023-07-09T15:41:00;37.00;99.90
23991;DHT22;12205;50.600;4.608;2023-07-09T15:43:29;37.20;99.90
23991;DHT22;12205;50.600;4.608;2023-07-09T15:45:57;37.40;99.90
23991;DHT22;12205;50.600;4.608;2023-07-09T15:48:30;37.60;99.90
23991;DHT22;12205;50.600;4.608;2023-07-09T15:50:59;37.70;99.90
23991;DHT22;12205;50.600;4.608;2023-07-09T15:53:27;37.90;99.90